Time;durP1;ratioP1;P1;durP2;ratioP2;P2;SDS_P1;SDS_P2;PMS_P1;PMS_P2;Temp;Humidity;BMP_temperature;BMP_pressure;BME280_temperature;BME280_humidity;BME280_pressure;Samples;Min_cycle;Max_cycle;Signal;HPM_P1;HPM_P2
2024/03/10 00:02:26;;;;;;;6.20;4.60;;;;;;;;;;5102662;28;20091;-80
2024/03/10 00:04:52;;;;;;;6.57;4.85;;;;;;;;;;5104831;28;20126;-80
2024/03/10 00:07:18;;;;;;;12.52;4.47;;;;;;;;;;5099363;28;20039;-80
2024/03/10 00:09:45;;;;;;;5.32;4.22;;;;;;;;;;5091088;28;20060;-80
2024/03/10 00:12:11;;;;;;;5.63;4.03;;;;;;;;;;5109881;28;20044;-79
2024/03/10 00:14:37;;;;;;;5.20;3.90;;;;;;;;;;5106223;28;20028;-79
2024/03/10 00:17:03;;;;;;;3.80;3.30;;;;;;;;;;5086417;28;20055;-80
2024/03/10 00:19:30;;;;;;;9.80;3.75;;;;;;;;;;5071103;28;20035;-79
2024/03/10 00:21:56;;;;;;;4.97;3.40;;;;;;;;;;5105988;28;20028;-79
2024/03/10 00:24:22;;;;;;;5.85;3.47;;;;;;;;;;5106628;28;20034;-79
2024/03/10 00:26:49;;;;;;;5.20;4.47;;;;;;;;;;5111689;28;20036;-80
2024/03/10 00:29:15;;;;;;;4.65;3.17;;;;;;;;;;5109117;28;20157;-81
2024/03/10 00:31:41;;;;;;;9.10;4.57;;;;;;;;;;5115511;28;20020;-81
2024/03/10 00:34:07;;;;;;;4.63;3.80;;;;;;;;;;5080520;28;20027;-80
2024/03/10 00:36:33;;;;;;;4.60;3.78;;;;;;;;;;5114439;28;20056;-79
2024/03/10 00:38:59;;;;;;;4.43;3.10;;;;;;;;;;5113553;28;20032;-80
2024/03/10 00:41:25;;;;;;;11.57;3.83;;;;;;;;;;5114082;28;20036;-80
2024/03/10 00:43:51;;;;;;;3.80;3.42;;;;;;;;;;5115856;28;20024;-80
2024/03/10 00:46:17;;;;;;;3.67;3.00;;;;;;;;;;5115535;28;20047;-80
2024/03/10 00:48:43;;;;;;;7.18;3.25;;;;;;;;;;5096355;28;20055;-82
2024/03/10 00:51:09;;;;;;;3.58;3.28;;;;;;;;;;5094238;28;20221;-81
2024/03/10 00:53:35;;;;;;;7.70;3.38;;;;;;;;;;5093054;28;20028;-79
2024/03/10 00:56:02;;;;;;;8.38;3.13;;;;;;;;;;5111042;28;20095;-82
2024/03/10 00:58:27;;;;;;;7.00;3.50;;;;;;;;;;5087804;28;20060;-82
2024/03/10 01:00:53;;;;;;;4.75;3.13;;;;;;;;;;5102865;28;20058;-80
2024/03/10 01:03:19;;;;;;;5.75;3.30;;;;;;;;;;5088228;28;20146;-80
2024/03/10 01:05:46;;;;;;;5.65;3.80;;;;;;;;;;5105989;28;20043;-80
2024/03/10 01:08:13;;;;;;;5.47;3.05;;;;;;;;;;5092058;28;20044;-79
2024/03/10 01:10:39;;;;;;;4.45;3.20;;;;;;;;;;5113216;28;20582;-81
2024/03/10 01:13:07;;;;;;;3.50;3.20;;;;;;;;;;5113493;28;20043;-81
2024/03/10 01:15:33;;;;;;;9.55;4.00;;;;;;;;;;5091845;28;20543;-80
2024/03/10 01:17:59;;;;;;;2.65;2.50;;;;;;;;;;5092582;28;20104;-81
2024/03/10 01:20:26;;;;;;;4.13;3.60;;;;;;;;;;5109814;28;20040;-79
2024/03/10 01:22:52;;;;;;;6.30;3.13;;;;;;;;;;5109254;28;20032;-79
2024/03/10 01:25:19;;;;;;;5.97;3.00;;;;;;;;;;5108716;28;20091;-80
2024/03/10 01:27:45;;;;;;;3.53;3.22;;;;;;;;;;5107369;28;20036;-81
2024/03/10 01:30:10;;;;;;;8.32;3.70;;;;;;;;;;5090414;28;20196;-81
2024/03/10 01:32:36;;;;;;;3.83;3.05;;;;;;;;;;5071027;28;20027;-80
2024/03/10 01:35:05;;;;;;;6.93;2.95;;;;;;;;;;5087677;28;20028;-81
2024/03/10 01:37:32;;;;;;;3.30;3.10;;;;;;;;;;5104687;28;20040;-78
2024/03/10 01:39:58;;;;;;;7.18;3.00;;;;;;;;;;5089568;28;20035;-79
2024/03/10 01:42:25;;;;;;;3.80;3.22;;;;;;;;;;5103894;28;20040;-79
2024/03/10 01:44:53;;;;;;;3.72;3.42;;;;;;;;;;5078769;28;20035;-78
2024/03/10 01:47:18;;;;;;;10.15;3.85;;;;;;;;;;5101321;28;20038;-81
2024/03/10 01:49:44;;;;;;;3.55;3.25;;;;;;;;;;5107664;28;20100;-80
2024/03/10 01:52:10;;;;;;;3.30;2.78;;;;;;;;;;5109792;28;20127;-80
2024/03/10 01:54:37;;;;;;;16.73;4.57;;;;;;;;;;5109985;28;20056;-80
2024/03/10 01:57:06;;;;;;;9.02;5.15;;;;;;;;;;5090026;28;20352;-80
2024/03/10 01:59:32;;;;;;;8.10;5.20;;;;;;;;;;5106300;28;20131;-79
2024/03/10 02:01:58;;;;;;;6.15;3.85;;;;;;;;;;5108845;28;20523;-80
2024/03/10 02:04:24;;;;;;;8.82;5.25;;;;;;;;;;5096615;28;20013;-80
2024/03/10 02:06:52;;;;;;;9.25;3.83;;;;;;;;;;5111854;28;20043;-81
2024/03/10 02:09:18;;;;;;;3.38;3.10;;;;;;;;;;5114109;28;20070;-79
2024/03/10 02:11:44;;;;;;;3.95;3.25;;;;;;;;;;5096298;28;20040;-80
2024/03/10 02:14:10;;;;;;;6.78;3.08;;;;;;;;;;5117223;28;20019;-81
2024/03/10 02:16:36;;;;;;;4.15;3.05;;;;;;;;;;5115440;28;20028;-80
2024/03/10 02:19:02;;;;;;;5.93;3.85;;;;;;;;;;5107863;28;20119;-79
2024/03/10 02:21:28;;;;;;;6.63;2.80;;;;;;;;;;5084120;28;20051;-78
2024/03/10 02:24:16;;;;;;;7.20;3.45;;;;;;;;;;5089033;28;20123;-80
2024/03/10 02:26:46;;;;;;;3.80;2.78;;;;;;;;;;5098477;28;20032;-80
2024/03/10 02:29:18;;;;;;;3.72;3.00;;;;;;;;;;5116937;28;20060;-80
2024/03/10 02:48:46;;;;;;;2.90;2.70;;;;;;;;;;5009856;28;20046;-81
2024/03/10 02:51:13;;;;;;;6.57;3.08;;;;;;;;;;5077925;28;20059;-80
2024/03/10 02:53:38;;;;;;;5.15;3.13;;;;;;;;;;5103681;28;20032;-80
2024/03/10 02:56:05;;;;;;;3.55;3.17;;;;;;;;;;5084996;28;20038;-81
2024/03/10 02:58:31;;;;;;;3.95;2.67;;;;;;;;;;5080763;28;20040;-80
2024/03/10 03:00:57;;;;;;;3.85;3.03;;;;;;;;;;5081690;28;20081;-80
2024/03/10 03:03:23;;;;;;;6.55;3.10;;;;;;;;;;5081532;28;20421;-81
2024/03/10 03:05:49;;;;;;;2.40;2.30;;;;;;;;;;5101549;28;20040;-80
2024/03/10 03:08:15;;;;;;;2.63;2.42;;;;;;;;;;5099649;28;20090;-81
2024/03/10 03:10:41;;;;;;;9.23;2.80;;;;;;;;;;5081531;28;20043;-80
2024/03/10 03:13:08;;;;;;;2.85;2.65;;;;;;;;;;5100215;28;20036;-80
2024/03/10 03:15:34;;;;;;;3.65;2.80;;;;;;;;;;5101882;28;20100;-81
2024/03/10 03:18:00;;;;;;;2.70;2.50;;;;;;;;;;5106078;28;20048;-82
2024/03/10 03:20:26;;;;;;;3.40;3.10;;;;;;;;;;5105862;28;20176;-81
2024/03/10 03:22:52;;;;;;;4.18;3.22;;;;;;;;;;5105036;28;20028;-79
2024/03/10 03:25:18;;;;;;;3.75;2.42;;;;;;;;;;5070138;28;20532;-80
2024/03/10 03:27:45;;;;;;;3.33;3.03;;;;;;;;;;5106408;28;20056;-81
2024/03/10 03:30:11;;;;;;;2.70;2.50;;;;;;;;;;5084403;28;20035;-82
2024/03/10 03:32:37;;;;;;;3.30;3.00;;;;;;;;;;5083292;28;20066;-80
2024/03/10 03:35:03;;;;;;;4.88;3.40;;;;;;;;;;5083064;28;20119;-79
2024/03/10 03:37:30;;;;;;;3.83;3.38;;;;;;;;;;5083405;28;20084;-81
2024/03/10 03:39:56;;;;;;;3.17;2.97;;;;;;;;;;5083627;28;20089;-84
2024/03/10 03:42:22;;;;;;;3.03;2.80;;;;;;;;;;5118021;28;20024;-83
2024/03/10 03:44:49;;;;;;;3.33;2.90;;;;;;;;;;5118325;28;20032;-84
2024/03/10 03:47:15;;;;;;;2.90;2.70;;;;;;;;;;5096547;28;20044;-82
2024/03/10 03:49:43;;;;;;;2.65;2.45;;;;;;;;;;5079414;28;20090;-84
2024/03/10 03:52:09;;;;;;;3.17;2.78;;;;;;;;;;5092445;28;20099;-83
2024/03/10 03:54:35;;;;;;;3.35;2.67;;;;;;;;;;5087571;28;20033;-83
2024/03/10 03:57:01;;;;;;;3.03;2.80;;;;;;;;;;5079220;28;20075;-81
2024/03/10 03:59:27;;;;;;;5.35;4.20;;;;;;;;;;5089730;28;20036;-82
2024/03/10 04:01:53;;;;;;;4.63;4.22;;;;;;;;;;5095306;28;20044;-80
2024/03/10 04:04:19;;;;;;;6.82;4.00;;;;;;;;;;5077380;28;20092;-82
2024/03/10 04:06:45;;;;;;;6.65;4.75;;;;;;;;;;5095742;28;20028;-83
2024/03/10 04:09:12;;;;;;;5.13;3.83;;;;;;;;;;5078405;28;20074;-82
2024/03/10 04:11:39;;;;;;;4.70;4.25;;;;;;;;;;5097082;28;20024;-83
2024/03/10 04:14:07;;;;;;;5.57;5.07;;;;;;;;;;5096884;28;20040;-84
2024/03/10 04:16:33;;;;;;;7.95;5.90;;;;;;;;;;5095789;28;20087;-82
2024/03/10 04:18:59;;;;;;;6.07;5.00;;;;;;;;;;5093705;28;20043;-83
2024/03/10 04:21:25;;;;;;;5.38;4.85;;;;;;;;;;5091656;28;20048;-84
2024/03/10 04:23:51;;;;;;;7.82;5.30;;;;;;;;;;5090173;28;20012;-83
2024/03/10 04:26:18;;;;;;;3.38;3.10;;;;;;;;;;5093058;28;20029;-83
2024/03/10 04:28:44;;;;;;;6.55;4.28;;;;;;;;;;5093996;28;20049;-82
2024/03/10 04:31:12;;;;;;;5.40;4.90;;;;;;;;;;5077622;28;20046;-83
2024/03/10 04:33:37;;;;;;;4.93;4.45;;;;;;;;;;5096509;28;20028;-82
2024/03/10 04:36:04;;;;;;;3.90;3.60;;;;;;;;;;5096572;28;20036;-84
2024/03/10 04:38:30;;;;;;;5.13;4.63;;;;;;;;;;5272850;22;20124;-84
2024/03/10 04:40:56;;;;;;;5.55;4.25;;;;;;;;;;5098986;28;20028;-82
2024/03/10 04:43:23;;;;;;;4.82;3.90;;;;;;;;;;5116628;28;20028;-83
2024/03/10 04:45:49;;;;;;;3.92;3.60;;;;;;;;;;5115092;28;20020;-85
2024/03/10 04:48:15;;;;;;;6.55;4.47;;;;;;;;;;5115166;28;20262;-82
2024/03/10 04:50:42;;;;;;;5.03;4.05;;;;;;;;;;5116258;28;20040;-84
2024/03/10 04:53:07;;;;;;;5.70;4.50;;;;;;;;;;5116292;28;20050;-84
2024/03/10 04:55:33;;;;;;;4.28;3.90;;;;;;;;;;5116241;28;20060;-81
2024/03/10 04:57:59;;;;;;;6.18;4.00;;;;;;;;;;5112941;28;20062;-82
2024/03/10 05:00:25;;;;;;;3.13;2.92;;;;;;;;;;5116496;28;20068;-83
2024/03/10 05:02:51;;;;;;;4.57;3.72;;;;;;;;;;5117274;28;20027;-83
2024/03/10 05:05:17;;;;;;;7.43;5.30;;;;;;;;;;5210631;22;20041;-85
2024/03/10 05:07:43;;;;;;;6.72;5.35;;;;;;;;;;5024054;28;20025;-84
2024/03/10 05:10:09;;;;;;;12.63;7.18;;;;;;;;;;5013715;28;20018;-81
2024/03/10 05:12:35;;;;;;;14.88;7.38;;;;;;;;;;5012505;28;20034;-81
2024/03/10 05:15:04;;;;;;;6.78;4.88;;;;;;;;;;5011550;28;20084;-82
2024/03/10 05:17:30;;;;;;;6.20;4.88;;;;;;;;;;5015711;28;20034;-82
2024/03/10 05:19:56;;;;;;;8.48;6.20;;;;;;;;;;5018367;28;20034;-79
2024/03/10 05:22:22;;;;;;;4.88;4.28;;;;;;;;;;5019245;28;20046;-80
2024/03/10 05:24:48;;;;;;;6.50;4.03;;;;;;;;;;5023320;28;20030;-82
2024/03/10 05:27:15;;;;;;;3.78;3.38;;;;;;;;;;5029677;28;20021;-81
2024/03/10 05:29:41;;;;;;;15.50;5.85;;;;;;;;;;5013515;28;20081;-83
2024/03/10 05:32:07;;;;;;;21.98;10.18;;;;;;;;;;5012573;28;20034;-83
2024/03/10 05:34:35;;;;;;;13.85;7.00;;;;;;;;;;4977434;28;20082;-79
2024/03/10 05:37:03;;;;;;;6.90;6.30;;;;;;;;;;5013509;28;20038;-77
2024/03/10 05:39:28;;;;;;;3.10;2.90;;;;;;;;;;5029250;28;20057;-79
2024/03/10 05:41:54;;;;;;;8.23;5.18;;;;;;;;;;5022166;28;20034;-78
2024/03/10 05:44:21;;;;;;;4.90;4.40;;;;;;;;;;5035630;28;20038;-80
2024/03/10 05:46:47;;;;;;;7.25;4.22;;;;;;;;;;5021126;28;20527;-82
2024/03/10 05:49:13;;;;;;;5.28;4.78;;;;;;;;;;4998740;28;20042;-80
2024/03/10 05:51:39;;;;;;;4.03;3.50;;;;;;;;;;4993447;28;20043;-80
2024/03/10 05:54:07;;;;;;;3.78;3.47;;;;;;;;;;5000753;28;20030;-82
2024/03/10 05:56:33;;;;;;;5.07;4.63;;;;;;;;;;5004062;28;20045;-81
2024/03/10 05:59:00;;;;;;;6.95;4.80;;;;;;;;;;4998461;28;20043;-82
2024/03/10 06:01:27;;;;;;;8.85;4.70;;;;;;;;;;4984098;28;20373;-81
2024/03/10 06:03:53;;;;;;;7.93;6.10;;;;;;;;;;4981459;28;20102;-80
2024/03/10 06:06:19;;;;;;;4.55;4.15;;;;;;;;;;4978075;28;20065;-80
2024/03/10 06:08:45;;;;;;;9.15;4.40;;;;;;;;;;5029309;28;20033;-82
2024/03/10 06:11:11;;;;;;;3.65;2.60;;;;;;;;;;5054025;28;20104;-79
2024/03/10 06:13:38;;;;;;;5.90;5.30;;;;;;;;;;5061977;28;20025;-80
2024/03/10 06:16:05;;;;;;;10.88;5.45;;;;;;;;;;5069184;28;20123;-82
2024/03/10 06:18:31;;;;;;;9.32;5.75;;;;;;;;;;5039004;28;20542;-81
2024/03/10 06:26:33;;;;;;;5.07;4.07;;;;;;;;;;5043977;28;20037;-80
2024/03/10 06:29:00;;;;;;;6.10;5.50;;;;;;;;;;5065550;28;20106;-81
2024/03/10 06:31:26;;;;;;;5.47;4.95;;;;;;;;;;5043617;28;20081;-82
2024/03/10 06:33:52;;;;;;;7.72;5.30;;;;;;;;;;5041018;28;20046;-81
2024/03/10 06:36:18;;;;;;;5.15;4.70;;;;;;;;;;5043939;28;20030;-81
2024/03/10 06:38:45;;;;;;;6.15;5.55;;;;;;;;;;5043498;28;20505;-81
2024/03/10 06:41:11;;;;;;;5.50;5.00;;;;;;;;;;5043659;28;20057;-82
2024/03/10 06:43:37;;;;;;;5.95;5.45;;;;;;;;;;5044890;28;20049;-81
2024/03/10 06:46:03;;;;;;;10.40;5.72;;;;;;;;;;5065677;28;20080;-82
2024/03/10 06:48:30;;;;;;;7.45;5.80;;;;;;;;;;5044944;28;20033;-82
2024/03/10 06:50:59;;;;;;;4.57;4.15;;;;;;;;;;5039807;28;20049;-83
2024/03/10 06:53:25;;;;;;;10.15;5.25;;;;;;;;;;5042335;28;20029;-83
2024/03/10 06:55:52;;;;;;;6.28;5.65;;;;;;;;;;5063498;28;20043;-81
2024/03/10 06:58:19;;;;;;;4.65;4.18;;;;;;;;;;5050120;28;20056;-82
2024/03/10 07:00:45;;;;;;;6.60;3.75;;;;;;;;;;5054707;28;20049;-82
2024/03/10 07:03:11;;;;;;;3.80;3.50;;;;;;;;;;5056222;28;20040;-83
2024/03/10 07:05:39;;;;;;;4.13;3.38;;;;;;;;;;5072622;28;20018;-81
2024/03/10 07:08:07;;;;;;;10.55;5.47;;;;;;;;;;5055640;28;20089;-82
2024/03/10 07:10:35;;;;;;;4.28;3.80;;;;;;;;;;5055440;28;20113;-80
2024/03/10 07:13:04;;;;;;;3.45;2.78;;;;;;;;;;5054385;28;20025;-81
2024/03/10 07:15:32;;;;;;;4.55;3.20;;;;;;;;;;5054431;28;20033;-81
2024/03/10 07:17:58;;;;;;;2.85;2.42;;;;;;;;;;5056018;28;20022;-83
2024/03/10 07:20:24;;;;;;;4.28;3.97;;;;;;;;;;5057925;28;20067;-82
2024/03/10 07:22:55;;;;;;;7.20;3.53;;;;;;;;;;5055664;28;20057;-81
2024/03/10 07:25:25;;;;;;;3.65;3.33;;;;;;;;;;5054810;28;20043;-82
2024/03/10 07:27:51;;;;;;;5.07;3.80;;;;;;;;;;5055851;28;20097;-82
2024/03/10 07:30:17;;;;;;;2.78;2.58;;;;;;;;;;5039329;28;20052;-81
2024/03/10 07:32:45;;;;;;;4.32;3.90;;;;;;;;;;5055755;28;20045;-81
2024/03/10 07:35:12;;;;;;;5.82;4.82;;;;;;;;;;5038861;28;20036;-82
2024/03/10 07:37:38;;;;;;;4.13;3.83;;;;;;;;;;5070841;28;20017;-82
2024/03/10 07:40:15;;;;;;;3.95;3.28;;;;;;;;;;5072211;28;20032;-82
2024/03/10 07:42:42;;;;;;;2.58;2.38;;;;;;;;;;5056194;28;20041;-81
2024/03/10 07:45:08;;;;;;;3.13;2.90;;;;;;;;;;5055488;28;20059;-83
2024/03/10 07:47:34;;;;;;;3.30;3.00;;;;;;;;;;5056124;28;20032;-81
2024/03/10 07:50:00;;;;;;;3.92;3.22;;;;;;;;;;5056631;28;20006;-82
2024/03/10 07:52:26;;;;;;;3.13;2.85;;;;;;;;;;5056439;28;20060;-83
2024/03/10 07:54:52;;;;;;;3.42;3.22;;;;;;;;;;5057604;28;20025;-83
2024/03/10 07:57:18;;;;;;;3.33;3.10;;;;;;;;;;5055578;28;20037;-82
2024/03/10 07:59:44;;;;;;;7.00;3.33;;;;;;;;;;5055494;28;20041;-82
2024/03/10 08:02:10;;;;;;;4.72;4.20;;;;;;;;;;5055033;28;20028;-82
2024/03/10 08:04:36;;;;;;;4.35;3.95;;;;;;;;;;5055147;28;20034;-82
2024/03/10 08:07:03;;;;;;;6.13;3.95;;;;;;;;;;5051689;28;20036;-81
2024/03/10 08:09:29;;;;;;;2.90;2.70;;;;;;;;;;5067760;28;20033;-82
2024/03/10 08:11:55;;;;;;;3.38;2.85;;;;;;;;;;5050913;28;20129;-81
2024/03/10 08:14:21;;;;;;;5.65;3.53;;;;;;;;;;5042112;28;20067;-83
2024/03/10 08:16:48;;;;;;;4.57;2.90;;;;;;;;;;5036994;28;20088;-83
2024/03/10 08:19:14;;;;;;;4.00;3.40;;;;;;;;;;5040665;28;20068;-80
2024/03/10 08:21:40;;;;;;;5.15;3.90;;;;;;;;;;5045487;28;20470;-83
2024/03/10 08:24:09;;;;;;;3.83;2.78;;;;;;;;;;5044796;28;20030;-83
2024/03/10 08:26:36;;;;;;;5.13;4.63;;;;;;;;;;5039677;28;20029;-79
2024/03/10 08:29:02;;;;;;;3.42;3.13;;;;;;;;;;5039024;28;20041;-78
2024/03/10 08:31:28;;;;;;;3.00;2.80;;;;;;;;;;5020236;28;20061;-78
2024/03/10 08:33:54;;;;;;;6.80;3.58;;;;;;;;;;5021149;28;20033;-78
2024/03/10 08:36:20;;;;;;;5.60;2.53;;;;;;;;;;5022803;28;20111;-78
2024/03/10 10:03:24;;;;;;;3.35;3.05;;;;;;;;;;6258064;22;20586;-77
2024/03/10 10:05:55;;;;;;;3.35;3.05;;;;;;;;;;6161404;22;20560;-76
2024/03/10 10:08:51;;;;;;;2.80;2.63;;;;;;;;;;6275414;22;20017;-76
2024/03/10 10:11:53;;;;;;;4.18;3.65;;;;;;;;;;6278777;22;20015;-76
2024/03/10 10:14:44;;;;;;;3.40;3.00;;;;;;;;;;6300158;22;20067;-75
2024/03/10 10:17:10;;;;;;;3.85;3.35;;;;;;;;;;6298997;22;20034;-75
2024/03/10 10:19:36;;;;;;;3.22;3.03;;;;;;;;;;6298782;22;20004;-75
2024/03/10 10:22:05;;;;;;;2.40;2.20;;;;;;;;;;6300286;22;20061;-75
2024/03/10 10:24:31;;;;;;;2.78;2.58;;;;;;;;;;6325841;22;20060;-75
2024/03/10 10:26:58;;;;;;;2.63;2.40;;;;;;;;;;6300395;22;20019;-76
2024/03/10 10:29:28;;;;;;;2.55;2.35;;;;;;;;;;6323913;22;20021;-75
2024/03/10 10:31:57;;;;;;;3.33;3.13;;;;;;;;;;6273493;22;20060;-75
2024/03/10 10:34:24;;;;;;;2.30;2.20;;;;;;;;;;6299951;22;20018;-75
2024/03/10 10:37:05;;;;;;;2.33;2.22;;;;;;;;;;6272062;22;20156;-75
2024/03/10 10:39:33;;;;;;;3.85;3.35;;;;;;;;;;6274000;22;20087;-77
2024/03/10 10:41:59;;;;;;;3.45;3.25;;;;;;;;;;6274764;22;20096;-75
2024/03/10 10:44:26;;;;;;;3.40;3.20;;;;;;;;;;6278153;22;20007;-79
2024/03/10 10:46:52;;;;;;;3.13;2.90;;;;;;;;;;6268970;22;20101;-79
2024/03/10 10:49:19;;;;;;;3.17;2.97;;;;;;;;;;6301037;22;20008;-78
2024/03/10 10:51:50;;;;;;;2.78;2.58;;;;;;;;;;6274110;22;20466;-76
2024/03/10 10:54:17;;;;;;;2.55;2.35;;;;;;;;;;6244261;22;20008;-75
2024/03/10 10:56:43;;;;;;;2.63;2.42;;;;;;;;;;6293128;22;20032;-75
2024/03/10 10:59:39;;;;;;;2.10;2.00;;;;;;;;;;6268503;22;20336;-75
2024/03/10 11:02:08;;;;;;;1.98;1.88;;;;;;;;;;6268140;22;20012;-75
2024/03/10 11:04:43;;;;;;;3.47;3.15;;;;;;;;;;6267810;22;20482;-73
2024/03/10 11:09:59;;;;;;;3.72;3.42;;;;;;;;;;6268624;22;20095;-73
2024/03/10 11:12:37;;;;;;;3.72;3.53;;;;;;;;;;6222619;22;20046;-75
2024/03/10 11:18:27;;;;;;;1.52;1.52;;;;;;;;;;6238640;22;20039;-75
2024/03/10 11:20:57;;;;;;;2.40;2.30;;;;;;;;;;6236389;23;20091;-73
2024/03/10 11:23:34;;;;;;;3.05;2.45;;;;;;;;;;6236996;23;20455;-75
2024/03/10 11:26:01;;;;;;;2.13;2.03;;;;;;;;;;6197094;22;20014;-72
2024/03/10 11:28:32;;;;;;;4.38;3.20;;;;;;;;;;6112084;23;20548;-73
2024/03/10 11:30:59;;;;;;;3.63;2.50;;;;;;;;;;6112757;22;20017;-72
2024/03/10 11:33:28;;;;;;;3.65;2.42;;;;;;;;;;6112684;23;20018;-72
2024/03/10 11:36:22;;;;;;;3.08;2.88;;;;;;;;;;6111779;23;20041;-74
2024/03/10 11:38:51;;;;;;;2.97;2.78;;;;;;;;;;6112683;23;20102;-76
2024/03/10 11:41:20;;;;;;;2.92;2.53;;;;;;;;;;6115127;23;20476;-72
2024/03/10 11:43:47;;;;;;;2.33;2.22;;;;;;;;;;6113386;23;20017;-74
2024/03/10 11:46:31;;;;;;;1.85;1.77;;;;;;;;;;6089178;23;20025;-73
2024/03/10 11:48:58;;;;;;;2.17;2.08;;;;;;;;;;6092703;23;20477;-73
2024/03/10 11:51:26;;;;;;;2.10;2.00;;;;;;;;;;6065720;23;20093;-71
2024/03/10 11:53:55;;;;;;;2.33;2.22;;;;;;;;;;6115682;23;20399;-75
2024/03/10 11:56:23;;;;;;;2.30;2.10;;;;;;;;;;6173361;22;20023;-75
2024/03/10 11:58:51;;;;;;;1.98;1.88;;;;;;;;;;6266937;22;20047;-74
2024/03/10 12:01:17;;;;;;;3.05;2.85;;;;;;;;;;6217859;22;20103;-72
2024/03/10 12:03:46;;;;;;;2.70;2.50;;;;;;;;;;6242295;22;20051;-74
2024/03/10 12:06:12;;;;;;;3.28;2.97;;;;;;;;;;6267017;22;20024;-75
2024/03/10 12:08:38;;;;;;;2.13;2.03;;;;;;;;;;6268094;22;20008;-75
2024/03/10 12:11:06;;;;;;;3.50;3.30;;;;;;;;;;6267650;22;20035;-74
2024/03/10 12:13:32;;;;;;;3.80;3.40;;;;;;;;;;6266838;22;20464;-73
2024/03/10 12:16:07;;;;;;;2.80;2.20;;;;;;;;;;6240172;22;20105;-73
2024/03/10 12:18:36;;;;;;;2.20;2.08;;;;;;;;;;6243005;22;20031;-74
2024/03/10 12:21:10;;;;;;;5.78;3.25;;;;;;;;;;6241149;22;20019;-74
2024/03/10 12:23:39;;;;;;;3.08;2.78;;;;;;;;;;6268939;22;20480;-73
2024/03/10 12:26:15;;;;;;;3.97;3.58;;;;;;;;;;6240740;22;20073;-74
2024/03/10 12:29:05;;;;;;;2.70;2.50;;;;;;;;;;6266803;22;20448;-74
2024/03/10 12:31:35;;;;;;;5.70;3.78;;;;;;;;;;6268868;22;20113;-73
2024/03/10 12:34:02;;;;;;;3.30;2.53;;;;;;;;;;6267378;22;20102;-72
2024/03/10 12:36:28;;;;;;;3.45;3.15;;;;;;;;;;6239985;22;20089;-72
2024/03/10 12:38:54;;;;;;;2.13;2.03;;;;;;;;;;6267144;22;20459;-71
2024/03/10 12:41:33;;;;;;;2.60;2.40;;;;;;;;;;6267502;22;20086;-71
2024/03/10 12:44:08;;;;;;;2.50;2.33;;;;;;;;;;6266209;22;20011;-74
2024/03/10 12:46:35;;;;;;;2.10;2.00;;;;;;;;;;6266668;22;20035;-71
2024/03/10 12:49:03;;;;;;;2.72;2.50;;;;;;;;;;6292627;22;20008;-72
2024/03/10 12:51:53;;;;;;;1.90;1.80;;;;;;;;;;6268733;22;20020;-72
2024/03/10 12:54:21;;;;;;;1.73;1.67;;;;;;;;;;6266990;22;20020;-72
2024/03/10 12:56:52;;;;;;;1.90;1.80;;;;;;;;;;6265882;22;20036;-71
2024/03/10 12:59:27;;;;;;;1.80;1.70;;;;;;;;;;6242460;22;20022;-74
2024/03/10 13:01:56;;;;;;;1.90;1.80;;;;;;;;;;6241478;22;20038;-73
2024/03/10 13:04:22;;;;;;;6.15;2.72;;;;;;;;;;6267527;22;20459;-75
2024/03/10 13:06:53;;;;;;;2.63;2.13;;;;;;;;;;6268876;22;20111;-75
2024/03/10 13:09:30;;;;;;;2.25;2.15;;;;;;;;;;6292845;22;20053;-75
2024/03/10 13:12:17;;;;;;;2.30;2.20;;;;;;;;;;6292041;22;20012;-73
2024/03/10 13:14:42;;;;;;;2.28;2.13;;;;;;;;;;6265859;22;20039;-73
2024/03/10 13:17:17;;;;;;;5.35;2.25;;;;;;;;;;6243937;22;20024;-74
2024/03/10 13:19:44;;;;;;;8.52;2.70;;;;;;;;;;6265701;22;20359;-74
2024/03/10 13:22:10;;;;;;;3.10;2.28;;;;;;;;;;6265989;22;20012;-75
2024/03/10 13:24:36;;;;;;;2.47;2.30;;;;;;;;;;6214636;22;20066;-74
2024/03/10 13:27:01;;;;;;;2.65;2.50;;;;;;;;;;6242566;22;20015;-75
2024/03/10 13:29:56;;;;;;;;;;;;;;;;;;;;;
2024/03/10 13:32:25;;;;;;;2.72;2.53;;;;;;;;;;6268669;22;20007;-71
2024/03/10 13:34:53;;;;;;;7.25;1.70;;;;;;;;;;6267469;22;20073;-73
2024/03/10 13:37:19;;;;;;;3.30;2.75;;;;;;;;;;6271146;22;20047;-74
2024/03/10 13:39:54;;;;;;;3.13;2.90;;;;;;;;;;6269391;22;20355;-77
2024/03/10 13:42:20;;;;;;;2.58;2.38;;;;;;;;;;6271561;22;20102;-76
2024/03/10 13:44:47;;;;;;;5.10;2.90;;;;;;;;;;6267971;22;20058;-75
2024/03/10 13:47:44;;;;;;;4.20;3.67;;;;;;;;;;6270448;22;20022;-75
2024/03/10 13:50:44;;;;;;;2.40;2.30;;;;;;;;;;6270999;22;20390;-74
2024/03/10 13:53:11;;;;;;;2.00;1.90;;;;;;;;;;6218386;22;20012;-77
2024/03/10 13:55:39;;;;;;;4.70;2.05;;;;;;;;;;6220165;22;20030;-74
2024/03/10 13:58:05;;;;;;;2.15;2.05;;;;;;;;;;6268399;22;20390;-75
2024/03/10 14:00:30;;;;;;;2.65;2.45;;;;;;;;;;6269660;22;20015;-76
2024/03/10 14:02:56;;;;;;;4.28;3.13;;;;;;;;;;6269059;22;20011;-77
2024/03/10 14:05:22;;;;;;;2.10;2.00;;;;;;;;;;6270598;22;20479;-73
2024/03/10 14:07:58;;;;;;;2.67;2.47;;;;;;;;;;6294672;22;20019;-73
2024/03/10 14:10:26;;;;;;;2.33;1.92;;;;;;;;;;6269335;22;20018;-74
2024/03/10 14:12:52;;;;;;;4.15;3.75;;;;;;;;;;6269099;22;20015;-73
2024/03/10 14:15:20;;;;;;;2.60;2.40;;;;;;;;;;6268315;22;20008;-74
2024/03/10 14:17:47;;;;;;;2.00;1.90;;;;;;;;;;6269038;22;20119;-74
2024/03/10 14:20:14;;;;;;;1.67;1.58;;;;;;;;;;6243388;22;20011;-75
2024/03/10 14:22:50;;;;;;;2.28;2.08;;;;;;;;;;6269813;22;20091;-78
2024/03/10 14:25:19;;;;;;;2.33;2.20;;;;;;;;;;6271462;22;20034;-76
2024/03/10 14:27:47;;;;;;;1.70;1.65;;;;;;;;;;6267824;22;20011;-74
2024/03/10 14:30:13;;;;;;;2.45;2.35;;;;;;;;;;6277964;22;20421;-77
2024/03/10 14:32:45;;;;;;;4.78;2.28;;;;;;;;;;6280138;22;20075;-76
2024/03/10 14:35:17;;;;;;;2.33;2.13;;;;;;;;;;6280177;22;20479;-73
2024/03/10 14:37:45;;;;;;;2.70;2.50;;;;;;;;;;6279278;22;20449;-74
2024/03/10 14:40:21;;;;;;;3.78;2.85;;;;;;;;;;6279324;22;20537;-74
2024/03/10 14:42:49;;;;;;;2.35;2.03;;;;;;;;;;6278460;22;20645;-73
2024/03/10 14:45:16;;;;;;;2.95;2.30;;;;;;;;;;6247830;22;20070;-74
2024/03/10 14:47:47;;;;;;;2.55;2.25;;;;;;;;;;6273249;22;20471;-74
2024/03/10 14:50:53;;;;;;;3.30;2.75;;;;;;;;;;6279044;22;20063;-77
2024/03/10 14:53:28;;;;;;;2.05;1.95;;;;;;;;;;6273277;22;20015;-76
2024/03/10 14:55:55;;;;;;;1.83;1.73;;;;;;;;;;6244063;22;20012;-76
2024/03/10 14:58:21;;;;;;;1.98;1.88;;;;;;;;;;6220244;22;20021;-75
2024/03/10 15:00:48;;;;;;;1.98;1.88;;;;;;;;;;6244802;22;20011;-74
2024/03/10 15:03:27;;;;;;;3.75;2.60;;;;;;;;;;6242763;22;20629;-74
2024/03/10 15:05:55;;;;;;;8.35;3.58;;;;;;;;;;6268761;22;20012;-74
2024/03/10 15:08:21;;;;;;;5.72;4.13;;;;;;;;;;6220673;22;20026;-73
2024/03/10 15:10:51;;;;;;;2.95;2.75;;;;;;;;;;6272575;22;20012;-73
2024/03/10 15:13:22;;;;;;;4.85;2.60;;;;;;;;;;6268458;22;20016;-72
2024/03/10 15:15:48;;;;;;;2.50;2.30;;;;;;;;;;6271378;22;20356;-74
2024/03/10 15:18:22;;;;;;;1.80;1.70;;;;;;;;;;6221012;22;20065;-74
2024/03/10 15:20:54;;;;;;;5.32;2.70;;;;;;;;;;6271076;22;20012;-74
2024/03/10 15:24:15;;;;;;;8.40;3.22;;;;;;;;;;6213245;23;20012;-75
2024/03/10 15:26:48;;;;;;;3.85;3.22;;;;;;;;;;6188556;23;20008;-74
2024/03/10 15:29:16;;;;;;;3.42;2.95;;;;;;;;;;6212466;23;20046;-75
2024/03/10 15:31:42;;;;;;;3.22;2.90;;;;;;;;;;6213632;23;20103;-76
2024/03/10 15:34:08;;;;;;;5.68;2.70;;;;;;;;;;6208986;23;20020;-76
2024/03/10 15:36:34;;;;;;;2.50;2.28;;;;;;;;;;6161317;23;20372;-76
2024/03/10 15:39:00;;;;;;;4.28;2.55;;;;;;;;;;6211587;23;20008;-74
2024/03/10 15:41:32;;;;;;;4.18;2.60;;;;;;;;;;6189788;23;20486;-75
2024/03/10 15:44:17;;;;;;;6.93;3.20;;;;;;;;;;6208432;23;20016;-73
2024/03/10 15:46:46;;;;;;;3.20;2.22;;;;;;;;;;6185350;23;20012;-73
2024/03/10 15:49:14;;;;;;;6.93;2.15;;;;;;;;;;6181508;23;20151;-73
2024/03/10 15:51:40;;;;;;;4.50;2.92;;;;;;;;;;6210816;23;20378;-73
2024/03/10 15:54:07;;;;;;;9.90;4.30;;;;;;;;;;6232514;23;20016;-73
2024/03/10 15:56:33;;;;;;;7.95;3.38;;;;;;;;;;6208166;23;20023;-73
2024/03/10 15:58:59;;;;;;;10.35;4.72;;;;;;;;;;6232878;23;20521;-73
2024/03/10 16:01:25;;;;;;;4.90;2.60;;;;;;;;;;6253751;22;20537;-73
2024/03/10 16:03:52;;;;;;;8.80;4.63;;;;;;;;;;6263897;22;20676;-74
2024/03/10 16:06:19;;;;;;;3.65;2.95;;;;;;;;;;6265612;22;20008;-73
2024/03/10 16:08:47;;;;;;;7.05;2.95;;;;;;;;;;6266391;22;20049;-73
2024/03/10 16:11:13;;;;;;;13.38;4.47;;;;;;;;;;6268597;22;20090;-72
2024/03/10 16:13:48;;;;;;;9.85;6.05;;;;;;;;;;6267965;22;20026;-71
2024/03/10 16:16:15;;;;;;;10.93;4.75;;;;;;;;;;6266811;22;20452;-73
2024/03/10 16:18:41;;;;;;;11.55;5.20;;;;;;;;;;6270138;22;20035;-73
2024/03/10 16:21:10;;;;;;;8.77;4.22;;;;;;;;;;6267334;22;20451;-72
2024/03/10 16:23:36;;;;;;;19.80;6.18;;;;;;;;;;6267842;22;20020;-72
2024/03/10 16:26:02;;;;;;;8.73;4.80;;;;;;;;;;6268781;22;20057;-72
2024/03/10 16:28:31;;;;;;;13.52;4.05;;;;;;;;;;6241847;22;20060;-73
2024/03/10 16:30:57;;;;;;;6.57;3.90;;;;;;;;;;6216998;22;20035;-72
2024/03/10 16:33:23;;;;;;;14.85;6.38;;;;;;;;;;6266301;22;20043;-73
2024/03/10 16:35:49;;;;;;;9.23;6.03;;;;;;;;;;6268868;22;20019;-73
2024/03/10 16:38:14;;;;;;;6.03;3.05;;;;;;;;;;6216456;22;20047;-72
2024/03/10 16:40:50;;;;;;;10.40;4.07;;;;;;;;;;6269499;22;20008;-75
2024/03/10 16:43:34;;;;;;;7.93;3.53;;;;;;;;;;6240537;22;20016;-77
2024/03/10 16:46:00;;;;;;;7.20;4.15;;;;;;;;;;6218380;22;20034;-75